createdAt,value
2023-03-16T00:00:21.976Z,2
2023-03-16T00:01:22.078Z,1.9
2023-03-16T00:02:22.271Z,1.9
2023-03-16T00:03:25.304Z,2
2023-03-16T00:04:22.317Z,1.9
2023-03-16T00:05:22.415Z,1.9
2023-03-16T00:06:24.541Z,1.9
2023-03-16T00:07:22.539Z,2
2023-03-16T00:08:22.579Z,2
2023-03-16T00:09:31.507Z,1.9
2023-03-16T00:10:22.654Z,1.8
2023-03-16T00:11:22.703Z,1.8
2023-03-16T00:12:27.561Z,1.8
2023-03-16T00:13:22.836Z,1.8
2023-03-16T00:14:22.888Z,1.8
2023-03-16T00:15:32.109Z,1.8
2023-03-16T00:16:23.086Z,1.9
2023-03-16T00:17:23.145Z,1.9
2023-03-16T00:18:23.443Z,1.9
2023-03-16T00:19:23.186Z,1.8
2023-03-16T00:20:23.207Z,1.8
2023-03-16T00:21:27.416Z,1.8
2023-03-16T00:22:23.276Z,1.9
2023-03-16T00:23:23.316Z,1.9
2023-03-16T00:24:23.399Z,1.7
2023-03-16T00:25:23.370Z,1.8
2023-03-16T00:26:23.358Z,1.7
2023-03-16T00:27:39.165Z,1.7
2023-03-16T00:28:23.469Z,1.8
2023-03-16T00:29:23.511Z,1.9
2023-03-16T00:30:28.042Z,1.9
2023-03-16T00:31:23.642Z,1.8
2023-03-16T00:32:23.738Z,1.8
2023-03-16T00:33:31.952Z,1.8
2023-03-16T00:34:27.335Z,1.7
2023-03-16T00:35:23.760Z,1.6
2023-03-16T00:36:30.552Z,1.7
2023-03-16T00:37:24.075Z,1.7
2023-03-16T00:38:23.863Z,1.6
2023-03-16T00:39:38.656Z,1.7
2023-03-16T00:40:23.979Z,1.7
2023-03-16T00:41:23.955Z,1.7
2023-03-16T00:42:29.043Z,1.7
2023-03-16T00:43:24.019Z,1.7
2023-03-16T00:44:24.081Z,1.7
2023-03-16T00:45:32.868Z,1.6
2023-03-16T00:46:24.187Z,1.6
2023-03-16T00:47:24.176Z,1.7
2023-03-16T00:48:28.458Z,1.7
2023-03-16T00:49:24.258Z,1.7
2023-03-16T00:50:24.297Z,1.7
2023-03-16T00:51:32.818Z,1.7
2023-03-16T00:52:24.346Z,1.6
2023-03-16T00:53:24.370Z,1.5
2023-03-16T00:54:36.645Z,1.6
2023-03-16T00:55:24.471Z,1.6
2023-03-16T00:56:24.429Z,1.6
2023-03-16T00:57:31.555Z,1.6
2023-03-16T00:58:24.543Z,1.5
2023-03-16T00:59:24.560Z,1.6
2023-03-16T01:00:29.779Z,1.4
2023-03-16T01:01:24.671Z,1.5
2023-03-16T01:02:24.831Z,1.6
2023-03-16T01:03:31.783Z,1.6
2023-03-16T01:04:24.688Z,1.6
2023-03-16T01:05:24.755Z,1.7
2023-03-16T01:06:28.466Z,1.7
2023-03-16T01:07:24.812Z,1.8
2023-03-16T01:08:24.847Z,1.8
2023-03-16T01:09:32.526Z,1.7
2023-03-16T01:10:25.053Z,1.6
2023-03-16T01:11:24.952Z,1.7
2023-03-16T01:12:31.431Z,1.7
2023-03-16T01:13:25.137Z,1.8
2023-03-16T01:14:25.198Z,1.7
2023-03-16T01:15:39.713Z,1.8
2023-03-16T01:16:25.372Z,1.9
2023-03-16T01:17:25.361Z,1.7
2023-03-16T01:18:37.752Z,1.7
2023-03-16T01:19:25.546Z,1.9
2023-03-16T01:20:25.884Z,2
2023-03-16T01:21:32.706Z,2
2023-03-16T01:22:25.727Z,2
2023-03-16T01:23:25.763Z,2
2023-03-16T01:24:29.461Z,1.9
2023-03-16T01:25:25.843Z,1.8
2023-03-16T01:26:25.914Z,1.9
2023-03-16T01:27:34.643Z,1.9
2023-03-16T01:28:25.997Z,1.8
2023-03-16T01:29:26.064Z,1.8
2023-03-16T01:30:29.315Z,1.8
2023-03-16T01:31:26.104Z,1.8
2023-03-16T01:32:26.208Z,1.8
2023-03-16T01:33:37.898Z,1.7
2023-03-16T01:34:26.198Z,1.7
2023-03-16T01:35:26.227Z,1.7
2023-03-16T01:36:28.939Z,1.6
2023-03-16T01:37:26.298Z,1.7
2023-03-16T01:38:26.320Z,1.5
2023-03-16T01:39:33.194Z,1.6
2023-03-16T01:40:26.770Z,1.6
2023-03-16T01:41:26.418Z,1.6
2023-03-16T01:42:30.029Z,1.7
2023-03-16T01:43:26.528Z,1.7
2023-03-16T01:44:26.575Z,1.7
2023-03-16T01:45:32.808Z,1.6
2023-03-16T01:46:26.708Z,1.7
2023-03-16T01:47:26.670Z,1.7
2023-03-16T01:48:29.952Z,1.6
2023-03-16T01:49:26.723Z,1.7
2023-03-16T01:50:27.040Z,1.7
2023-03-16T01:51:33.454Z,1.7
2023-03-16T01:52:26.934Z,1.7
2023-03-16T01:53:26.955Z,1.7
2023-03-16T01:54:29.645Z,1.6
2023-03-16T01:55:26.908Z,1.7
2023-03-16T01:56:26.967Z,1.7
2023-03-16T01:57:38.375Z,1.7
2023-03-16T01:58:27.047Z,1.7
2023-03-16T01:59:27.109Z,1.7
2023-03-16T02:00:29.821Z,1.7
2023-03-16T02:01:27.194Z,1.8
2023-03-16T02:02:27.204Z,1.8
2023-03-16T02:03:27.169Z,1.7
2023-03-16T02:04:27.278Z,1.7
2023-03-16T02:05:27.236Z,1.7
2023-03-16T02:06:35.802Z,1.7
2023-03-16T02:07:27.313Z,1.6
2023-03-16T02:08:27.364Z,1.6
2023-03-16T02:09:35.090Z,1.7
2023-03-16T02:10:27.580Z,1.7
2023-03-16T02:11:27.444Z,1.7
2023-03-16T02:12:43.295Z,1.6
2023-03-16T02:13:27.503Z,1.6
2023-03-16T02:14:27.516Z,1.6
2023-03-16T02:15:36.993Z,1.6
2023-03-16T02:16:27.626Z,1.6
2023-03-16T02:17:27.643Z,1.5
2023-03-16T02:18:37.745Z,1.5
2023-03-16T02:19:27.747Z,1.5
2023-03-16T02:20:27.982Z,1.6
2023-03-16T02:21:45.097Z,1.6
2023-03-16T02:22:27.794Z,1.7
2023-03-16T02:23:27.887Z,1.7
2023-03-16T02:24:41.700Z,1.7
2023-03-16T02:25:28.050Z,1.6
2023-03-16T02:26:28.121Z,1.6
2023-03-16T02:27:28.179Z,1.6
2023-03-16T02:28:28.274Z,1.6
2023-03-16T02:29:28.323Z,1.6
2023-03-16T02:30:44.069Z,1.6
2023-03-16T02:31:28.507Z,1.7
2023-03-16T02:32:28.557Z,1.8
2023-03-16T02:33:44.536Z,1.7
2023-03-16T02:34:28.677Z,1.7
2023-03-16T02:35:28.755Z,1.7
2023-03-16T02:36:50.505Z,1.7
2023-03-16T02:37:28.829Z,1.8
2023-03-16T02:38:28.998Z,1.7
2023-03-16T02:40:04.561Z,1.6
2023-03-16T02:40:30.817Z,1.7
2023-03-16T02:41:29.050Z,1.8
2023-03-16T02:42:31.673Z,1.7
2023-03-16T02:43:34.997Z,1.7
2023-03-16T02:44:33.079Z,1.7
2023-03-16T02:45:36.590Z,1.7
2023-03-16T02:47:29.341Z,1.6
2023-03-16T02:47:31.059Z,1.6
2023-03-16T02:48:29.263Z,1.6
2023-03-16T02:49:29.302Z,1.8
2023-03-16T02:50:29.576Z,1.6
2023-03-16T02:51:29.373Z,1.7
2023-03-16T02:52:29.361Z,1.7
2023-03-16T02:53:29.420Z,1.7
2023-03-16T02:54:29.432Z,1.7
2023-03-16T02:55:29.462Z,1.7
2023-03-16T02:56:29.565Z,1.6
2023-03-16T02:57:29.513Z,1.7
2023-03-16T02:58:29.579Z,1.7
2023-03-16T02:59:29.587Z,1.6
2023-03-16T03:00:29.947Z,1.6
2023-03-16T03:01:29.651Z,1.6
2023-03-16T03:02:29.689Z,1.6
2023-03-16T03:03:29.899Z,1.7
2023-03-16T03:04:29.770Z,1.7
2023-03-16T03:05:29.800Z,1.7
2023-03-16T03:06:29.838Z,1.7
2023-03-16T03:07:29.869Z,1.7
2023-03-16T03:08:29.933Z,1.7
2023-03-16T03:09:29.942Z,1.6
2023-03-16T03:10:30.085Z,1.5
2023-03-16T03:11:29.992Z,1.6
2023-03-16T03:12:30.009Z,1.6
2023-03-16T03:13:30.049Z,1.7
2023-03-16T03:14:30.080Z,1.8
2023-03-16T03:15:30.149Z,1.7
2023-03-16T03:16:30.267Z,1.6
2023-03-16T03:17:30.431Z,1.5
2023-03-16T03:18:30.191Z,1.7
2023-03-16T03:19:30.265Z,1.7
2023-03-16T03:20:30.628Z,1.7
2023-03-16T03:21:30.298Z,1.6
2023-03-16T03:22:30.326Z,1.6
2023-03-16T03:23:30.395Z,1.6
2023-03-16T03:24:30.361Z,1.7
2023-03-16T03:25:30.431Z,1.7
2023-03-16T03:26:30.452Z,1.6
2023-03-16T03:27:30.483Z,1.6
2023-03-16T03:28:30.527Z,1.6
2023-03-16T03:29:30.558Z,1.6
2023-03-16T03:30:30.597Z,1.6
2023-03-16T03:31:30.661Z,1.6
2023-03-16T03:32:30.699Z,1.6
2023-03-16T03:33:30.684Z,1.7
2023-03-16T03:34:30.735Z,1.6
2023-03-16T03:35:30.884Z,1.6
2023-03-16T03:36:30.875Z,1.7
2023-03-16T03:37:30.963Z,1.6
2023-03-16T03:38:31.018Z,1.6
2023-03-16T03:39:31.098Z,1.5
2023-03-16T03:40:31.102Z,1.6
2023-03-16T03:41:31.212Z,1.5
2023-03-16T03:42:31.262Z,1.5
2023-03-16T03:43:31.366Z,1.5
2023-03-16T03:44:31.453Z,1.6
2023-03-16T03:45:31.496Z,1.6
2023-03-16T03:46:31.645Z,1.5
2023-03-16T03:47:31.561Z,1.6
2023-03-16T03:48:31.696Z,1.6
2023-03-16T03:49:31.717Z,1.6
2023-03-16T03:50:31.843Z,1.5
2023-03-16T03:51:31.885Z,1.6
2023-03-16T03:52:31.900Z,1.6
2023-03-16T03:53:31.927Z,1.7
2023-03-16T03:54:31.928Z,1.6
2023-03-16T03:55:31.951Z,1.6
2023-03-16T03:56:31.990Z,1.5
2023-03-16T03:57:31.991Z,1.5
2023-03-16T03:58:32.078Z,1.5
2023-03-16T03:59:32.104Z,1.6
2023-03-16T04:00:32.093Z,1.6
2023-03-16T04:01:32.115Z,1.6
2023-03-16T04:02:32.274Z,1.7
2023-03-16T04:03:32.245Z,1.6
2023-03-16T04:04:32.200Z,1.6
2023-03-16T04:05:32.245Z,1.5
2023-03-16T04:06:32.282Z,1.6
2023-03-16T04:07:32.354Z,1.5
2023-03-16T04:08:32.424Z,1.5
2023-03-16T04:09:32.400Z,1.5
2023-03-16T04:10:32.455Z,1.6
2023-03-16T04:11:32.455Z,1.6
2023-03-16T04:12:32.469Z,1.5
2023-03-16T04:13:32.555Z,1.6
2023-03-16T04:14:32.596Z,1.6
2023-03-16T04:15:32.602Z,1.5
2023-03-16T04:16:32.685Z,1.5
2023-03-16T04:17:32.687Z,1.6
2023-03-16T04:18:32.697Z,1.6
2023-03-16T04:19:32.723Z,1.6
2023-03-16T04:20:32.780Z,1.6
2023-03-16T04:21:32.800Z,1.6
2023-03-16T04:22:32.832Z,1.5
2023-03-16T04:23:32.911Z,1.6
2023-03-16T04:24:32.891Z,1.6
2023-03-16T04:25:32.893Z,1.5
2023-03-16T04:26:32.929Z,1.5
2023-03-16T04:27:32.974Z,1.6
2023-03-16T04:28:33.007Z,1.7
2023-03-16T04:29:33.093Z,1.6
2023-03-16T04:31:25.752Z,1.6
2023-03-16T04:31:33.087Z,1.6
2023-03-16T04:32:33.233Z,1.6
2023-03-16T04:33:33.216Z,1.7
2023-03-16T04:34:33.194Z,1.7
2023-03-16T04:35:33.248Z,1.6
2023-03-16T04:36:33.232Z,1.6
2023-03-16T04:38:08.079Z,1.6
2023-03-16T04:38:33.343Z,1.6
2023-03-16T04:39:45.689Z,1.6
2023-03-16T04:40:42.503Z,1.6
2023-03-16T04:41:55.790Z,1.6
2023-03-16T04:42:33.447Z,1.6
2023-03-16T04:43:45.799Z,1.6
2023-03-16T04:44:33.520Z,1.6
2023-03-16T04:45:33.547Z,1.7
2023-03-16T04:46:38.704Z,1.8
2023-03-16T04:47:33.690Z,1.7
2023-03-16T04:48:33.772Z,1.7
2023-03-16T04:49:53.776Z,1.7
2023-03-16T04:50:33.910Z,1.7
2023-03-16T04:51:33.933Z,1.8
2023-03-16T04:52:54.021Z,1.7
2023-03-16T04:53:34.108Z,1.6
2023-03-16T04:54:34.187Z,1.6
2023-03-16T04:55:44.632Z,1.7
2023-03-16T04:56:34.358Z,1.7
2023-03-16T04:57:34.373Z,1.7
2023-03-16T04:58:40.540Z,1.7
2023-03-16T04:59:34.519Z,1.6
2023-03-16T05:00:34.572Z,1.7
2023-03-16T05:02:08.151Z,1.7
2023-03-16T05:02:34.720Z,1.6
2023-03-16T05:03:34.760Z,1.7
2023-03-16T05:04:52.926Z,1.7
2023-03-16T05:05:34.934Z,1.7
2023-03-16T05:06:34.859Z,1.7
2023-03-16T05:07:52.272Z,1.7
2023-03-16T05:08:34.911Z,1.7
2023-03-16T05:09:34.923Z,1.8
2023-03-16T05:11:00.352Z,1.7
2023-03-16T05:11:35.071Z,1.8
2023-03-16T05:12:35.097Z,1.7
2023-03-16T05:13:57.837Z,1.7
2023-03-16T05:14:35.197Z,1.7
2023-03-16T05:15:35.256Z,1.6
2023-03-16T05:16:49.164Z,1.7
2023-03-16T05:17:35.249Z,1.7
2023-03-16T05:18:35.259Z,1.7
2023-03-16T05:19:48.998Z,1.7
2023-03-16T05:20:35.448Z,1.8
2023-03-16T05:21:36.671Z,1.8
2023-03-16T05:22:52.235Z,1.8
2023-03-16T05:23:35.405Z,1.8
2023-03-16T05:24:35.472Z,1.8
2023-03-16T05:25:52.057Z,1.8
2023-03-16T05:26:35.541Z,1.8
2023-03-16T05:27:35.542Z,1.9
2023-03-16T05:28:52.456Z,1.9
2023-03-16T05:29:35.660Z,1.8
2023-03-16T05:30:35.724Z,1.9
2023-03-16T05:31:42.427Z,1.8
2023-03-16T05:32:35.861Z,1.8
2023-03-16T05:33:35.740Z,1.8
2023-03-16T05:34:35.778Z,1.8
2023-03-16T05:35:35.826Z,1.8
2023-03-16T05:36:35.824Z,1.8
2023-03-16T05:37:35.848Z,1.8
2023-03-16T05:38:35.861Z,1.8
2023-03-16T05:39:35.934Z,1.8
2023-03-16T05:40:35.957Z,1.8
2023-03-16T05:41:36.244Z,1.8
2023-03-16T05:42:36.075Z,1.8
2023-03-16T05:43:36.033Z,1.8
2023-03-16T05:44:36.269Z,1.9
2023-03-16T05:45:36.126Z,1.9
2023-03-16T05:46:36.215Z,1.8
2023-03-16T05:47:36.214Z,1.8
2023-03-16T05:48:36.232Z,1.8
2023-03-16T05:49:36.278Z,1.8
2023-03-16T05:50:36.323Z,1.8
2023-03-16T05:51:36.299Z,1.8
2023-03-16T05:52:36.357Z,1.9
2023-03-16T05:53:36.377Z,1.9
2023-03-16T05:54:36.413Z,1.9
2023-03-16T05:55:36.453Z,1.9
2023-03-16T05:56:36.514Z,2
2023-03-16T05:57:36.555Z,1.9
2023-03-16T05:58:36.608Z,1.9
2023-03-16T05:59:36.690Z,1.9
2023-03-16T06:00:36.713Z,1.8
2023-03-16T06:01:36.770Z,1.8
2023-03-16T06:02:36.915Z,1.8
2023-03-16T06:03:36.997Z,1.8
2023-03-16T06:04:37.022Z,1.9
2023-03-16T06:05:37.066Z,1.9
2023-03-16T06:06:37.098Z,2
2023-03-16T06:07:37.127Z,2
2023-03-16T06:08:37.166Z,1.9
2023-03-16T06:09:37.237Z,2
2023-03-16T06:10:37.247Z,1.9
2023-03-16T06:11:37.301Z,1.9
2023-03-16T06:12:37.377Z,1.9
2023-03-16T06:13:37.401Z,2
2023-03-16T06:14:37.480Z,1.9
2023-03-16T06:15:37.486Z,1.8
2023-03-16T06:16:37.553Z,1.9
2023-03-16T06:17:37.624Z,1.9
2023-03-16T06:18:37.623Z,1.8
2023-03-16T06:19:37.601Z,1.9
2023-03-16T06:20:37.653Z,1.9
2023-03-16T06:21:37.732Z,1.9
2023-03-16T06:22:37.713Z,1.9
2023-03-16T06:23:37.878Z,1.9
2023-03-16T06:24:37.760Z,1.9
2023-03-16T06:25:40.570Z,1.9
2023-03-16T06:26:37.869Z,2
2023-03-16T06:27:37.906Z,2
2023-03-16T06:28:37.915Z,1.9
2023-03-16T06:29:37.991Z,1.9
2023-03-16T06:30:38.526Z,2
2023-03-16T06:31:44.841Z,1.9
2023-03-16T06:32:41.120Z,2
2023-03-16T06:33:38.420Z,1.9
2023-03-16T06:34:41.351Z,1.9
2023-03-16T06:35:38.648Z,2
2023-03-16T06:36:41.710Z,1.9
2023-03-16T06:37:38.543Z,2.1
2023-03-16T06:38:41.311Z,2
2023-03-16T06:39:38.750Z,2
2023-03-16T06:40:40.624Z,2
2023-03-16T06:41:38.365Z,2
2023-03-16T06:42:42.284Z,2
2023-03-16T06:43:38.411Z,2.1
2023-03-16T06:44:40.394Z,2.1
2023-03-16T06:45:38.554Z,2.1
2023-03-16T06:46:40.885Z,2.1
2023-03-16T06:47:38.571Z,2.1
2023-03-16T06:48:41.112Z,2.1
2023-03-16T06:49:38.590Z,2.2
2023-03-16T06:50:41.202Z,2.3
2023-03-16T06:51:38.654Z,2.2
2023-03-16T06:52:41.409Z,2.1
2023-03-16T06:53:38.734Z,2.2
2023-03-16T06:54:40.700Z,2.2
2023-03-16T06:55:38.845Z,2.3
2023-03-16T06:56:40.842Z,2.4
2023-03-16T06:57:38.854Z,2.3
2023-03-16T06:58:41.085Z,2.4
2023-03-16T06:59:38.916Z,2.4
2023-03-16T07:00:40.541Z,2.3
2023-03-16T07:01:38.973Z,2.3
2023-03-16T07:02:40.582Z,2.4
2023-03-16T07:03:39.614Z,2.4
2023-03-16T07:04:41.649Z,2.4
2023-03-16T07:05:39.103Z,2.5
2023-03-16T07:06:41.169Z,2.4
2023-03-16T07:07:39.390Z,2.5
2023-03-16T07:08:40.456Z,2.4
2023-03-16T07:09:41.608Z,2.4
2023-03-16T07:10:43.250Z,2.4
2023-03-16T07:11:39.455Z,2.4
2023-03-16T07:12:41.295Z,2.5
2023-03-16T07:13:39.564Z,2.6
2023-03-16T07:14:40.561Z,2.6
2023-03-16T07:15:39.717Z,2.6
2023-03-16T07:16:40.915Z,2.6
2023-03-16T07:17:39.810Z,2.6
2023-03-16T07:18:40.574Z,2.5
2023-03-16T07:19:39.993Z,2.6
2023-03-16T07:20:40.661Z,2.6
2023-03-16T07:21:40.174Z,2.6
2023-03-16T07:22:41.358Z,2.6
2023-03-16T07:23:40.135Z,2.6
2023-03-16T07:24:43.140Z,2.6
2023-03-16T07:25:40.240Z,2.6
2023-03-16T07:26:40.616Z,2.7
2023-03-16T07:27:40.317Z,2.8
2023-03-16T07:28:40.804Z,2.8
2023-03-16T07:29:40.407Z,2.8
2023-03-16T07:30:45.836Z,2.7
2023-03-16T07:36:44.248Z,2.9
2023-03-16T07:37:44.277Z,2.9
2023-03-16T07:38:44.374Z,2.9
2023-03-16T07:39:44.428Z,2.8
2023-03-16T07:40:44.500Z,2.9
2023-03-16T07:41:44.594Z,2.9
2023-03-16T07:42:44.666Z,2.8
2023-03-16T07:43:44.759Z,2.8
2023-03-16T07:44:44.813Z,2.8
2023-03-16T07:45:44.953Z,2.9
2023-03-16T07:46:45.122Z,2.9
2023-03-16T07:47:45.143Z,2.9
2023-03-16T07:48:45.263Z,3
2023-03-16T07:49:45.542Z,3.1
2023-03-16T07:50:45.405Z,3
2023-03-16T07:51:45.466Z,3.1
2023-03-16T07:52:45.580Z,3.1
2023-03-16T07:53:45.673Z,3.1
2023-03-16T07:54:45.725Z,3.1
2023-03-16T07:55:45.820Z,3.2
2023-03-16T07:56:49.179Z,3.3
2023-03-16T07:57:45.858Z,3.3
2023-03-16T07:58:45.890Z,3.4
2023-03-16T07:59:45.944Z,3.4
2023-03-16T08:00:46.024Z,3.4
2023-03-16T08:01:46.172Z,3.4
2023-03-16T08:02:46.283Z,3.4
2023-03-16T08:03:46.239Z,3.4
2023-03-16T08:04:54.527Z,3.4
2023-03-16T08:05:46.285Z,3.4
2023-03-16T08:06:47.189Z,3.3
2023-03-16T08:07:46.377Z,3.4
2023-03-16T08:08:47.281Z,3.5
2023-03-16T08:09:46.499Z,3.6
2023-03-16T08:10:47.094Z,3.7
2023-03-16T08:11:46.692Z,3.6
2023-03-16T08:12:47.033Z,3.5
2023-03-16T08:13:46.796Z,3.4
2023-03-16T08:14:46.951Z,3.5
2023-03-16T08:15:46.994Z,3.5
2023-03-16T08:16:47.013Z,3.5
2023-03-16T08:17:47.117Z,3.5
2023-03-16T08:18:47.172Z,3.4
2023-03-16T08:19:47.253Z,3.5
2023-03-16T08:20:47.771Z,3.5
2023-03-16T08:22:00.572Z,3.5
2023-03-16T08:22:47.580Z,3.5
2023-03-16T08:23:47.523Z,3.5
2023-03-16T08:24:47.677Z,3.5
2023-03-16T08:25:47.617Z,3.5
2023-03-16T08:26:48.680Z,3.5
2023-03-16T08:27:47.759Z,3.6
2023-03-16T08:28:48.712Z,3.6
2023-03-16T08:29:47.879Z,3.6
2023-03-16T08:30:48.776Z,3.8
2023-03-16T08:31:48.042Z,3.9
2023-03-16T08:32:48.933Z,3.8
2023-03-16T08:33:48.237Z,3.8
2023-03-16T08:34:48.479Z,3.9
2023-03-16T08:35:48.404Z,3.8
2023-03-16T08:36:48.609Z,3.9
2023-03-16T08:37:48.557Z,3.9
2023-03-16T08:39:04.067Z,4
2023-03-16T08:39:48.666Z,4
2023-03-16T08:40:48.906Z,4.1
2023-03-16T08:41:48.823Z,4.1
2023-03-16T08:42:48.958Z,4.2
2023-03-16T08:45:23.380Z,4.2
2023-03-16T08:46:49.111Z,4.2
2023-03-16T08:46:49.290Z,4.2
2023-03-16T08:47:49.336Z,4.2
2023-03-16T08:48:49.472Z,4.2
2023-03-16T08:50:17.450Z,4.2
2023-03-16T08:52:52.613Z,4.2
2023-03-16T08:53:55.221Z,4.2
2023-03-16T08:55:02.242Z,4.2
2023-03-16T08:55:49.949Z,4.2
2023-03-16T08:56:50.064Z,4.3
2023-03-16T08:57:50.057Z,4.5
2023-03-16T08:58:52.441Z,4.5
2023-03-16T08:59:50.214Z,4.5
2023-03-16T09:00:50.707Z,4.6
2023-03-16T09:01:50.402Z,4.6
2023-03-16T09:02:50.459Z,4.7
2023-03-16T09:03:50.561Z,4.8
2023-03-16T09:04:50.645Z,4.9
2023-03-16T09:05:50.666Z,4.9
2023-03-16T09:06:59.007Z,4.9
2023-03-16T09:07:50.832Z,4.8
2023-03-16T09:08:50.940Z,4.8
2023-03-16T09:09:50.993Z,4.9
2023-03-16T09:10:52.326Z,4.9
2023-03-16T09:11:51.158Z,4.9
2023-03-16T09:12:51.302Z,5
2023-03-16T09:13:52.983Z,5
2023-03-16T09:14:51.371Z,5
2023-03-16T09:15:51.489Z,5
2023-03-16T09:16:51.505Z,5.1
2023-03-16T09:17:51.587Z,5
2023-03-16T09:18:51.640Z,5.1
2023-03-16T09:19:53.904Z,5.2
2023-03-16T09:20:51.801Z,5.3
2023-03-16T09:21:51.869Z,5.3
2023-03-16T09:22:51.936Z,5.3
2023-03-16T09:23:52.009Z,5.2
2023-03-16T09:24:52.030Z,5.2
2023-03-16T09:25:52.102Z,5.2
2023-03-16T09:26:52.067Z,5.1
2023-03-16T09:27:52.159Z,5.2
2023-03-16T09:28:52.248Z,5.2
2023-03-16T09:29:52.320Z,5.2
2023-03-16T09:30:52.381Z,5.3
2023-03-16T09:31:52.534Z,5.2
2023-03-16T09:33:02.579Z,5.2
2023-03-16T09:33:52.517Z,5.2
2023-03-16T09:35:02.260Z,5.2
2023-03-16T09:35:52.682Z,5.1
2023-03-16T09:37:05.281Z,5.2
2023-03-16T09:38:36.307Z,5.3
2023-03-16T09:39:11.379Z,5.3
2023-03-16T09:40:12.089Z,5.4
2023-03-16T09:41:35.104Z,5.5
2023-03-16T09:42:11.558Z,5.6
2023-03-16T09:43:11.621Z,5.7
2023-03-16T09:44:24.812Z,5.9
2023-03-16T09:45:11.821Z,6.1
2023-03-16T09:46:11.837Z,6.3
2023-03-16T09:47:28.185Z,6.5
2023-03-16T09:48:11.983Z,6.4
2023-03-16T09:49:12.032Z,6.4
2023-03-16T09:50:12.157Z,6.5
2023-03-16T09:51:15.801Z,6.6
2023-03-16T09:52:12.239Z,6.9
2023-03-16T09:53:13.230Z,7
2023-03-16T09:54:12.420Z,7
2023-03-16T09:55:13.832Z,6.7
2023-03-16T09:56:12.575Z,6.6
2023-03-16T09:57:13.186Z,6.4
2023-03-16T09:58:12.706Z,6.5
2023-03-16T09:59:13.657Z,6.4
2023-03-16T10:00:12.910Z,6.3
2023-03-16T10:01:12.966Z,6.3
2023-03-16T10:02:12.977Z,6.3
2023-03-16T10:03:13.859Z,6.2
2023-03-16T10:04:13.188Z,6.3
2023-03-16T10:05:13.239Z,6.4
2023-03-16T10:06:13.318Z,6.3
2023-03-16T10:07:15.063Z,6.5
2023-03-16T10:10:03.874Z,6.5
2023-03-16T10:11:13.406Z,6.3
2023-03-16T10:12:05.599Z,6.3
2023-03-16T10:13:13.023Z,6.3
2023-03-16T10:14:04.147Z,6.3
2023-03-16T10:15:12.967Z,6.3
2023-03-16T10:16:04.422Z,6.4
2023-03-16T10:17:12.830Z,6.4
2023-03-16T10:18:04.449Z,6.3
2023-03-16T10:19:15.427Z,6.4
2023-03-16T10:20:04.642Z,6.3
2023-03-16T10:21:13.436Z,6.3
2023-03-16T10:22:05.154Z,6.3
2023-03-16T10:23:14.616Z,6.3
2023-03-16T10:24:04.950Z,6.3
2023-03-16T10:25:13.952Z,6.3
2023-03-16T10:26:05.113Z,6.2
2023-03-16T10:27:13.953Z,6.2
2023-03-16T10:28:05.207Z,6.3
2023-03-16T10:29:13.599Z,6.3
2023-03-16T10:30:05.380Z,6.2
2023-03-16T10:31:13.281Z,6.2
2023-03-16T10:32:06.536Z,6.2
2023-03-16T10:33:14.116Z,6.2
2023-03-16T10:34:05.658Z,6.3
2023-03-16T10:35:15.112Z,6.4
2023-03-16T10:36:05.859Z,6.3
2023-03-16T10:37:13.854Z,6.3
2023-03-16T10:38:05.885Z,6.3
2023-03-16T10:39:19.119Z,6.4
2023-03-16T10:40:11.124Z,6.4
2023-03-16T10:41:13.046Z,6.4
2023-03-16T10:42:11.234Z,6.5
2023-03-16T10:43:15.277Z,6.6
2023-03-16T10:44:11.527Z,6.6
2023-03-16T10:45:14.445Z,6.5
2023-03-16T10:46:16.576Z,6.6
2023-03-16T10:47:12.734Z,6.7
2023-03-16T10:48:11.586Z,6.8
2023-03-16T10:49:13.937Z,6.7
2023-03-16T10:50:11.657Z,6.8
2023-03-16T10:51:17.320Z,6.8
2023-03-16T10:52:11.756Z,6.9
2023-03-16T10:53:17.372Z,7
2023-03-16T10:54:11.907Z,7
2023-03-16T10:55:17.277Z,7.1
2023-03-16T10:56:12.070Z,7.1
2023-03-16T10:57:21.083Z,7.1
2023-03-16T10:58:12.165Z,7.2
2023-03-16T10:59:20.346Z,7.3
2023-03-16T11:00:12.354Z,7.3
2023-03-16T11:01:20.879Z,7.3
2023-03-16T11:02:12.454Z,7.3
2023-03-16T11:03:26.842Z,7.4
2023-03-16T11:04:13.540Z,7.4
2023-03-16T11:05:30.820Z,7.5
2023-03-16T11:06:16.409Z,7.5
2023-03-16T11:07:34.297Z,7.5
2023-03-16T11:08:12.930Z,7.6
2023-03-16T11:10:03.176Z,7.7
2023-03-16T11:10:13.915Z,7.8
2023-03-16T11:11:41.351Z,7.9
2023-03-16T11:12:40.524Z,7.8
2023-03-16T11:13:43.977Z,7.9
2023-03-16T11:14:14.361Z,8
2023-03-16T11:16:15.555Z,8
2023-03-16T11:16:22.083Z,8.1
2023-03-16T11:17:14.509Z,8.1
2023-03-16T11:18:14.533Z,8.1
2023-03-16T11:19:14.563Z,8.1
2023-03-16T11:20:14.659Z,8.2
2023-03-16T11:23:32.438Z,8.4
2023-03-16T11:24:32.542Z,8.5
2023-03-16T11:25:32.609Z,8.6
2023-03-16T11:26:32.710Z,8.6
2023-03-16T11:27:32.806Z,8.6
2023-03-16T11:28:32.878Z,8.6
2023-03-16T11:29:32.949Z,8.5
2023-03-16T11:30:33.186Z,8.5
2023-03-16T11:31:33.306Z,8.6
2023-03-16T11:32:33.329Z,8.6
2023-03-16T11:33:33.362Z,8.5
2023-03-16T11:34:33.445Z,8.6
2023-03-16T11:35:33.555Z,8.8
2023-03-16T11:36:33.604Z,9.1
2023-03-16T11:37:33.701Z,9.2
2023-03-16T11:38:33.801Z,9.3
2023-03-16T11:39:33.875Z,9.5
2023-03-16T11:40:33.974Z,9.8
2023-03-16T11:41:34.057Z,10
2023-03-16T11:42:34.193Z,10
2023-03-16T11:43:34.262Z,10
2023-03-16T11:44:34.360Z,10.2
2023-03-16T11:45:34.465Z,10.4
2023-03-16T11:46:34.628Z,10.8
2023-03-16T11:47:34.669Z,11.1
2023-03-16T11:48:34.883Z,10.9
2023-03-16T11:49:34.852Z,10.9
2023-03-16T11:50:34.920Z,10.9
2023-03-16T11:51:35.048Z,10.6
2023-03-16T11:52:35.126Z,10.6
2023-03-16T11:53:35.627Z,10.4
2023-03-16T11:54:35.328Z,10.3
2023-03-16T11:55:35.416Z,10.2
2023-03-16T11:56:35.480Z,10.1
2023-03-16T11:57:35.610Z,10
2023-03-16T11:58:35.615Z,10
2023-03-16T11:59:35.660Z,9.8
2023-03-16T12:00:35.737Z,10.1
2023-03-16T12:01:35.824Z,10.2
2023-03-16T12:02:35.939Z,10.2
2023-03-16T12:03:36.103Z,10.3
2023-03-16T12:04:36.039Z,10.3
2023-03-16T12:05:36.098Z,10.2
2023-03-16T12:06:36.175Z,10.2
2023-03-16T12:07:36.245Z,10.2
2023-03-16T12:08:36.347Z,10.3
2023-03-16T12:09:36.473Z,10.5
2023-03-16T12:10:36.493Z,10.2
2023-03-16T12:11:36.599Z,10.3
2023-03-16T12:12:36.671Z,10.5
2023-03-16T12:13:38.472Z,10.7
2023-03-16T12:14:37.291Z,10.6
2023-03-16T12:15:36.898Z,10.9
2023-03-16T12:16:55.273Z,11.1
2023-03-16T12:17:37.061Z,11.3
2023-03-16T12:18:37.164Z,11.3
2023-03-16T12:19:37.261Z,11.4
2023-03-16T12:20:37.294Z,11.3
2023-03-16T12:21:37.455Z,11.4
2023-03-16T12:22:54.744Z,11.4
2023-03-16T12:23:47.445Z,11.2
2023-03-16T12:25:02.445Z,11.1
2023-03-16T12:26:25.464Z,11.3
2023-03-16T12:27:11.517Z,11.4
2023-03-16T12:28:14.754Z,11.6
2023-03-16T12:29:11.670Z,11.5
2023-03-16T12:30:15.290Z,11.5
2023-03-16T12:31:11.866Z,11.5
2023-03-16T12:32:14.573Z,11.3
2023-03-16T12:33:12.035Z,11.2
2023-03-16T12:34:15.677Z,11.2
2023-03-16T12:35:12.215Z,11.3
2023-03-16T12:36:21.173Z,11.1
2023-03-16T12:37:12.309Z,11.2
2023-03-16T12:38:19.941Z,11.2
2023-03-16T12:39:12.423Z,10.9
2023-03-16T12:40:46.123Z,11.2
2023-03-16T12:41:12.574Z,11.3
2023-03-16T12:42:14.504Z,11.3
2023-03-16T12:43:12.763Z,11.3
2023-03-16T12:44:14.508Z,11.3
2023-03-16T12:45:12.901Z,11.1
2023-03-16T12:46:22.846Z,10.9
2023-03-16T12:47:13.150Z,10.9
2023-03-16T12:48:16.275Z,10.7
2023-03-16T12:49:21.477Z,10.3
2023-03-16T12:50:14.784Z,10.1
2023-03-16T12:51:19.538Z,10.2
2023-03-16T12:52:14.798Z,10.1
2023-03-16T12:53:19.536Z,10.1
2023-03-16T12:54:15.180Z,10.1
2023-03-16T12:55:20.942Z,10
2023-03-16T12:56:29.253Z,10.1
2023-03-16T12:57:24.217Z,10.1
2023-03-16T12:58:48.263Z,10.1
2023-03-16T12:59:24.400Z,10
2023-03-16T13:00:24.499Z,10
2023-03-16T13:01:35.398Z,10
2023-03-16T13:02:24.714Z,10
2023-03-16T13:03:24.776Z,9.9
2023-03-16T13:04:50.522Z,10
2023-03-16T13:05:25.045Z,10.1
2023-03-16T13:06:27.628Z,10.1
2023-03-16T13:07:41.197Z,10.1
2023-03-16T13:08:25.219Z,10.2
2023-03-16T13:09:25.284Z,10.1
2023-03-16T13:11:19.465Z,10.1
2023-03-16T13:11:25.704Z,9.9
2023-03-16T13:12:25.492Z,9.9
2023-03-16T13:13:40.878Z,9.9
2023-03-16T13:14:25.674Z,9.8
2023-03-16T13:15:25.728Z,9.9
2023-03-16T13:16:33.212Z,9.9
2023-03-16T13:17:34.342Z,9.9
2023-03-16T13:18:25.996Z,9.9
2023-03-16T13:19:31.364Z,9.9
2023-03-16T13:20:30.604Z,9.9
2023-03-16T13:21:30.790Z,9.8
2023-03-16T13:22:26.252Z,9.8
2023-03-16T13:23:34.075Z,9.9
2023-03-16T13:24:26.425Z,9.8
2023-03-16T13:25:33.765Z,9.7
2023-03-16T13:26:26.562Z,9.7
2023-03-16T13:27:33.561Z,9.7
2023-03-16T13:28:26.738Z,9.7
2023-03-16T13:29:33.628Z,9.8
2023-03-16T13:30:27.301Z,9.8
2023-03-16T13:31:34.177Z,9.8
2023-03-16T13:32:27.170Z,9.9
2023-03-16T13:33:35.356Z,9.9
2023-03-16T13:34:27.224Z,9.9
2023-03-16T13:44:34.752Z,10.3
2023-03-16T13:45:28.198Z,10.3
2023-03-16T13:46:29.284Z,10.3
2023-03-16T13:47:30.462Z,10.4
2023-03-16T13:48:29.421Z,10.5
2023-03-16T13:49:28.550Z,10.6
2023-03-16T13:50:31.552Z,10.8
2023-03-16T13:51:29.014Z,10.8
2023-03-16T13:52:31.211Z,10.9
2023-03-16T13:53:28.940Z,11
2023-03-16T13:54:37.924Z,11.2
2023-03-16T13:55:29.102Z,11.1
2023-03-16T13:56:30.824Z,11.1
2023-03-16T13:57:29.301Z,11.3
2023-03-16T13:58:54.673Z,11.3
2023-03-16T13:59:29.471Z,11.4
2023-03-16T14:00:31.514Z,11.4
2023-03-16T14:01:29.770Z,11.3
2023-03-16T14:02:31.162Z,11.2
2023-03-16T14:03:29.864Z,11.2
2023-03-16T14:04:38.526Z,11
2023-03-16T14:05:30.499Z,11
2023-03-16T14:06:32.303Z,10.9
2023-03-16T14:07:30.290Z,11
2023-03-16T14:08:30.764Z,10.8